Time;durP1;ratioP1;P1;durP2;ratioP2;P2;SDS_P1;SDS_P2;PMS_P1;PMS_P2;Temp;Humidity;BMP_temperature;BMP_pressure;BME280_temperature;BME280_humidity;BME280_pressure;Samples;Min_cycle;Max_cycle;Signal;HPM_P1;HPM_P2
2023/02/01 00:00:18;;;;;;;4.72;0.85;;;3.30;99.90;;;;;;5108043;28;20665;-68
2023/02/01 00:02:45;;;;;;;1.27;1.05;;;3.40;99.90;;;;;;5118220;27;20272;-68
2023/02/01 00:05:11;;;;;;;1.00;0.75;;;3.30;99.90;;;;;;5107933;28;20194;-68
2023/02/01 00:07:40;;;;;;;1.88;1.38;;;3.30;99.90;;;;;;5108002;28;20202;-69
2023/02/01 00:10:08;;;;;;;0.30;0.30;;;3.50;99.90;;;;;;5107472;28;20202;-69
2023/02/01 00:12:35;;;;;;;0.85;0.85;;;3.20;99.90;;;;;;5109500;27;20202;-68
2023/02/01 00:15:02;;;;;;;0.80;0.65;;;3.30;99.90;;;;;;5120727;27;20322;-69
2023/02/01 00:17:28;;;;;;;0.30;0.20;;;3.20;99.90;;;;;;5122636;27;20230;-68
2023/02/01 00:19:55;;;;;;;1.25;0.60;;;3.20;99.90;;;;;;5108428;27;20202;-68
2023/02/01 00:22:22;;;;;;;0.75;0.55;;;3.20;99.90;;;;;;5108355;27;20224;-69
2023/02/01 00:24:50;;;;;;;0.68;0.55;;;3.20;99.90;;;;;;5108468;28;20962;-68
2023/02/01 00:27:20;;;;;;;0.45;0.45;;;3.30;99.90;;;;;;5110756;27;20235;-68
2023/02/01 00:29:46;;;;;;;1.17;1.13;;;3.20;99.90;;;;;;5122608;27;20871;-67
2023/02/01 00:32:14;;;;;;;0.65;0.65;;;3.20;99.90;;;;;;5123072;27;20745;-68
2023/02/01 00:34:40;;;;;;;0.43;0.43;;;3.20;99.90;;;;;;5128225;27;20901;-68
2023/02/01 00:37:07;;;;;;;0.40;0.35;;;3.10;99.90;;;;;;5123370;27;20731;-68
2023/02/01 00:39:34;;;;;;;0.80;0.77;;;3.00;99.90;;;;;;5124201;28;20201;-68
2023/02/01 00:42:03;;;;;;;0.85;0.85;;;3.10;99.90;;;;;;5111195;28;20218;-69
2023/02/01 00:44:32;;;;;;;2.13;1.17;;;3.20;99.90;;;;;;5110612;28;20687;-68
2023/02/01 00:47:00;;;;;;;0.65;0.63;;;3.20;99.90;;;;;;5127478;28;20602;-68
2023/02/01 00:49:26;;;;;;;0.77;0.52;;;3.30;99.90;;;;;;5126754;28;20327;-69
2023/02/01 00:51:53;;;;;;;2.45;1.15;;;3.40;99.90;;;;;;5127690;28;20580;-68
2023/02/01 00:54:20;;;;;;;3.88;0.68;;;3.30;99.90;;;;;;5127637;28;20217;-68
2023/02/01 00:56:47;;;;;;;0.50;0.50;;;3.30;99.90;;;;;;5127639;28;20721;-68
2023/02/01 00:59:15;;;;;;;0.50;0.50;;;3.30;99.90;;;;;;5127168;28;20610;-68
2023/02/01 01:01:42;;;;;;;0.40;0.40;;;3.20;99.90;;;;;;5126924;28;20236;-69
2023/02/01 01:04:09;;;;;;;2.35;1.42;;;3.30;99.90;;;;;;5126575;28;20193;-68
2023/02/01 01:06:35;;;;;;;0.77;0.55;;;3.20;99.90;;;;;;5126314;28;20225;-69
2023/02/01 01:09:05;;;;;;;0.50;0.50;;;3.20;99.90;;;;;;5126566;28;20204;-68
2023/02/01 01:11:35;;;;;;;0.73;0.55;;;4.30;99.90;;;;;;5124311;28;20217;-68
2023/02/01 01:14:02;;;;;;;0.47;0.47;;;3.30;99.90;;;;;;5106861;28;20205;-69
2023/02/01 01:16:31;;;;;;;0.88;0.75;;;3.30;99.90;;;;;;5107029;28;20214;-68
2023/02/01 01:18:59;;;;;;;0.68;0.63;;;3.20;99.90;;;;;;5123776;28;20208;-68
2023/02/01 01:21:26;;;;;;;0.30;0.30;;;3.20;99.90;;;;;;5127220;28;20217;-68
2023/02/01 01:23:53;;;;;;;0.45;0.45;;;3.20;99.90;;;;;;5125782;28;20284;-68
2023/02/01 01:26:23;;;;;;;0.30;0.30;;;3.30;99.90;;;;;;5127077;28;20224;-68
2023/02/01 01:28:50;;;;;;;0.45;0.45;;;3.40;99.90;;;;;;5113565;28;20198;-68
2023/02/01 01:31:21;;;;;;;0.40;0.40;;;3.40;99.90;;;;;;5106451;28;20233;-68
2023/02/01 01:33:53;;;;;;;1.33;0.85;;;5.90;99.90;;;;;;5127167;28;20197;-68
2023/02/01 01:36:21;;;;;;;0.83;0.50;;;3.30;99.90;;;;;;5089093;28;1069353;-67
2023/02/01 01:38:48;;;;;;;0.47;0.35;;;3.30;99.90;;;;;;5111048;28;20204;-68
2023/02/01 01:41:17;;;;;;;0.43;0.30;;;3.30;99.90;;;;;;5127430;28;20708;-68
2023/02/01 01:43:56;;;;;;;2.20;0.50;;;3.30;99.90;;;;;;5127917;28;20215;-68
2023/02/01 01:46:25;;;;;;;0.85;0.50;;;3.30;99.90;;;;;;5127532;28;20265;-68
2023/02/01 01:49:00;;;;;;;0.55;0.52;;;3.30;99.90;;;;;;5115226;28;20197;-68
2023/02/01 01:51:29;;;;;;;2.40;0.73;;;3.40;99.90;;;;;;5120310;28;20221;-67
2023/02/01 01:54:02;;;;;;;0.55;0.45;;;3.30;99.90;;;;;;5123111;28;20201;-68
2023/02/01 01:56:31;;;;;;;1.15;1.08;;;3.40;99.90;;;;;;5127304;28;20247;-68
2023/02/01 01:58:58;;;;;;;1.17;0.63;;;3.30;99.90;;;;;;5128063;28;20306;-68
2023/02/01 02:01:25;;;;;;;0.40;0.40;;;3.40;99.90;;;;;;5127696;28;20228;-68
2023/02/01 02:03:55;;;;;;;1.95;0.47;;;3.40;99.90;;;;;;5127736;28;20207;-67
2023/02/01 02:06:32;;;;;;;0.93;0.65;;;3.50;99.90;;;;;;5126995;28;20225;-68
2023/02/01 02:08:59;;;;;;;1.20;0.70;;;3.40;99.90;;;;;;5126923;28;20201;-68
2023/02/01 02:11:26;;;;;;;0.70;0.70;;;3.40;99.90;;;;;;5127353;28;20729;-68
2023/02/01 02:13:55;;;;;;;2.45;0.60;;;3.40;99.90;;;;;;5127782;28;20716;-68
2023/02/01 02:16:48;;;;;;;0.60;0.40;;;3.40;99.90;;;;;;5127794;28;20739;-68
2023/02/01 02:19:51;;;;;;;1.10;0.82;;;3.50;99.90;;;;;;5126616;28;20270;-68
2023/02/01 02:22:47;;;;;;;0.40;0.32;;;3.40;99.90;;;;;;5121404;28;20236;-68
2023/02/01 02:25:38;;;;;;;0.88;0.60;;;3.40;99.90;;;;;;5127477;28;20209;-68
2023/02/01 02:28:25;;;;;;;0.40;0.40;;;3.50;99.90;;;;;;5130256;27;20253;-68
2023/02/01 02:31:19;;;;;;;1.92;0.80;;;3.40;99.90;;;;;;5131446;27;20274;-68
2023/02/01 02:33:58;;;;;;;0.50;0.45;;;3.50;99.90;;;;;;5130341;27;20254;-69
2023/02/01 02:36:38;;;;;;;0.73;0.40;;;3.50;99.90;;;;;;5129930;27;20256;-68
2023/02/01 02:39:14;;;;;;;1.70;0.63;;;3.50;99.90;;;;;;5118400;27;20286;-68
2023/02/01 02:47:37;;;;;;;0.95;0.77;;;3.50;99.90;;;;;;5113251;27;20225;-69
2023/02/01 03:04:11;;;;;;;2.05;1.00;;;3.50;99.90;;;;;;5125470;27;20240;-68
2023/02/01 03:06:40;;;;;;;0.30;0.28;;;3.50;99.90;;;;;;5129759;27;20711;-68
2023/02/01 03:09:14;;;;;;;0.60;0.60;;;3.50;99.90;;;;;;5127716;27;20255;-69
2023/02/01 03:14:34;;;;;;;0.40;0.30;;;3.50;99.90;;;;;;5129307;27;20200;-68
2023/02/01 03:17:06;;;;;;;0.45;0.45;;;3.40;99.90;;;;;;5129988;27;20335;-67
2023/02/01 03:19:38;;;;;;;1.20;0.85;;;3.50;99.90;;;;;;5129070;27;20714;-69
2023/02/01 03:22:09;;;;;;;0.70;0.70;;;3.50;99.90;;;;;;5129839;27;20638;-68
2023/02/01 03:24:39;;;;;;;0.85;0.60;;;3.50;99.90;;;;;;5129530;27;20582;-69
2023/02/01 03:27:13;;;;;;;0.93;0.93;;;3.50;99.90;;;;;;5129333;27;20221;-68
2023/02/01 03:29:49;;;;;;;0.50;0.30;;;3.50;99.90;;;;;;5110564;27;20863;-68
2023/02/01 03:32:16;;;;;;;0.82;0.82;;;3.50;99.90;;;;;;5128845;27;20722;-68
2023/02/01 03:34:43;;;;;;;0.82;0.75;;;3.50;99.90;;;;;;5129475;27;20201;-68
2023/02/01 03:37:16;;;;;;;1.27;1.20;;;3.50;99.90;;;;;;5129352;27;20232;-68
2023/02/01 03:39:49;;;;;;;0.82;0.50;;;5.80;99.90;;;;;;5118254;27;20224;-69
2023/02/01 03:42:22;;;;;;;0.40;0.40;;;3.60;99.90;;;;;;5113362;27;20220;-67
2023/02/01 03:44:55;;;;;;;4.32;0.73;;;3.50;99.90;;;;;;5129297;27;20197;-67
2023/02/01 03:47:26;;;;;;;0.30;0.30;;;3.50;99.90;;;;;;5129064;27;20306;-68
2023/02/01 03:49:57;;;;;;;0.80;0.80;;;3.50;99.90;;;;;;5110357;27;20285;-68
2023/02/01 03:52:29;;;;;;;1.50;1.40;;;3.50;99.90;;;;;;5128556;27;21824;-68
2023/02/01 03:54:59;;;;;;;0.45;0.45;;;3.40;99.90;;;;;;5128183;27;20216;-68
2023/02/01 03:57:30;;;;;;;0.40;0.40;;;3.40;99.90;;;;;;5128335;27;20225;-68
2023/02/01 04:00:08;;;;;;;1.33;1.23;;;3.40;99.90;;;;;;5108538;27;20194;-67
2023/02/01 04:02:35;;;;;;;1.98;1.25;;;3.50;99.90;;;;;;5108382;28;20197;-68
2023/02/01 04:05:03;;;;;;;0.40;0.40;;;3.50;99.90;;;;;;5124666;27;20197;-68
2023/02/01 04:07:31;;;;;;;1.50;1.40;;;3.50;99.90;;;;;;5126660;27;20202;-68
2023/02/01 04:09:58;;;;;;;0.57;0.57;;;3.50;99.90;;;;;;5128467;27;20591;-68
2023/02/01 04:12:25;;;;;;;0.90;0.90;;;3.60;99.90;;;;;;5118198;27;20214;-67
2023/02/01 04:14:52;;;;;;;0.70;0.70;;;3.50;99.90;;;;;;5121766;27;20193;-68
2023/02/01 04:17:19;;;;;;;0.30;0.30;;;3.50;99.90;;;;;;5124033;27;20640;-68
2023/02/01 04:19:46;;;;;;;0.40;0.40;;;3.50;99.90;;;;;;5127926;27;20197;-68
2023/02/01 04:22:13;;;;;;;0.73;0.73;;;3.50;99.90;;;;;;5127976;27;20638;-68
2023/02/01 04:24:41;;;;;;;3.75;1.42;;;3.50;99.90;;;;;;5127885;27;20228;-68
2023/02/01 04:27:08;;;;;;;1.10;1.10;;;3.40;99.90;;;;;;5128130;27;20220;-67
2023/02/01 04:29:34;;;;;;;2.75;1.55;;;3.50;99.90;;;;;;5127710;27;20639;-68
2023/02/01 04:32:01;;;;;;;1.10;1.05;;;3.50;99.90;;;;;;5128098;27;20213;-69
2023/02/01 04:34:30;;;;;;;0.35;0.32;;;3.50;99.90;;;;;;5127356;27;20197;-69
2023/02/01 04:36:57;;;;;;;0.45;0.45;;;3.50;99.90;;;;;;5125236;27;20259;-68
2023/02/01 04:39:24;;;;;;;1.48;0.75;;;3.60;99.90;;;;;;5118213;27;20202;-68
2023/02/01 04:41:52;;;;;;;0.88;0.73;;;3.60;99.90;;;;;;5127958;27;20236;-67
2023/02/01 04:44:20;;;;;;;0.90;0.90;;;3.60;99.90;;;;;;5127960;27;20201;-68
2023/02/01 04:46:48;;;;;;;1.63;0.40;;;3.60;99.90;;;;;;5127632;27;20707;-68
2023/02/01 04:49:16;;;;;;;0.60;0.60;;;3.60;99.90;;;;;;5127254;27;20197;-69
2023/02/01 04:51:43;;;;;;;0.60;0.60;;;3.60;99.90;;;;;;5127181;27;20282;-68
2023/02/01 04:54:11;;;;;;;0.75;0.68;;;3.60;99.90;;;;;;5128140;27;20201;-68
2023/02/01 04:56:38;;;;;;;0.55;0.55;;;3.50;99.90;;;;;;5127675;27;20233;-69
2023/02/01 04:59:06;;;;;;;1.27;1.17;;;3.60;99.90;;;;;;5127474;27;20219;-68
2023/02/01 05:01:33;;;;;;;0.40;0.40;;;3.60;99.90;;;;;;5127418;27;20225;-68
2023/02/01 05:04:00;;;;;;;0.80;0.60;;;3.60;99.90;;;;;;5127604;27;20197;-68
2023/02/01 05:06:27;;;;;;;0.45;0.45;;;3.60;99.90;;;;;;5127881;27;20227;-68
2023/02/01 05:08:54;;;;;;;0.63;0.43;;;3.60;99.90;;;;;;5126658;27;20193;-68
2023/02/01 05:14:06;;;;;;;0.80;0.45;;;3.70;99.90;;;;;;5125918;27;20201;-69
2023/02/01 05:16:33;;;;;;;0.30;0.30;;;3.70;99.90;;;;;;5126827;28;20618;-68
2023/02/01 05:18:59;;;;;;;1.58;1.48;;;3.70;99.90;;;;;;5127094;28;20196;-68
2023/02/01 05:21:26;;;;;;;2.35;0.80;;;3.70;99.90;;;;;;5127178;28;20215;-67
2023/02/01 05:24:12;;;;;;;1.13;0.95;;;3.60;99.90;;;;;;5127962;28;20201;-68
2023/02/01 05:26:40;;;;;;;0.38;0.38;;;3.60;99.90;;;;;;5127170;28;20225;-69
2023/02/01 05:29:09;;;;;;;0.40;0.40;;;3.70;99.90;;;;;;5127326;28;20200;-69
2023/02/01 05:31:36;;;;;;;1.15;1.15;;;3.70;99.90;;;;;;5127503;28;20224;-69
2023/02/01 05:34:03;;;;;;;0.90;0.90;;;3.70;99.90;;;;;;5127560;28;20678;-68
2023/02/01 05:36:30;;;;;;;1.13;1.02;;;3.60;99.90;;;;;;5126663;28;20235;-69
2023/02/01 05:38:57;;;;;;;0.60;0.60;;;3.60;99.90;;;;;;5119505;28;20193;-69
2023/02/01 05:41:24;;;;;;;0.47;0.38;;;3.60;99.90;;;;;;5126420;28;20217;-68
2023/02/01 05:43:51;;;;;;;0.50;0.50;;;3.70;99.90;;;;;;5127767;28;20193;-69
2023/02/01 05:46:19;;;;;;;0.30;0.28;;;3.70;99.90;;;;;;5128060;28;20236;-68
2023/02/01 05:48:45;;;;;;;0.30;0.30;;;3.70;99.90;;;;;;5128233;28;20246;-68
2023/02/01 05:51:12;;;;;;;0.73;0.73;;;3.60;99.90;;;;;;5125082;28;20213;-68
2023/02/01 05:53:39;;;;;;;0.52;0.40;;;3.70;99.90;;;;;;5127415;28;20201;-69
2023/02/01 05:56:07;;;;;;;0.70;0.63;;;3.50;99.90;;;;;;5126714;28;20643;-68
2023/02/01 05:58:34;;;;;;;0.40;0.40;;;3.60;99.90;;;;;;5127607;28;20200;-67
2023/02/01 06:01:01;;;;;;;0.38;0.38;;;3.60;99.90;;;;;;5127198;27;20309;-68
2023/02/01 06:03:30;;;;;;;0.30;0.30;;;3.60;99.90;;;;;;5125364;27;20193;-68
2023/02/01 06:05:56;;;;;;;0.70;0.70;;;3.60;99.90;;;;;;5131633;27;20243;-68
2023/02/01 06:08:25;;;;;;;0.70;0.70;;;3.60;99.90;;;;;;5128819;27;20198;-66
2023/02/01 06:10:57;;;;;;;0.40;0.40;;;3.30;99.90;;;;;;5131245;27;20229;-68
2023/02/01 06:13:24;;;;;;;0.32;0.32;;;3.50;99.90;;;;;;5129421;27;20981;-66
2023/02/01 06:15:51;;;;;;;0.30;0.30;;;4.00;99.90;;;;;;5130668;27;20221;-69
2023/02/01 06:18:18;;;;;;;2.55;0.73;;;3.50;99.90;;;;;;5130120;27;20201;-66
2023/02/01 06:20:53;;;;;;;1.42;0.90;;;3.40;99.90;;;;;;5114479;27;20233;-67
2023/02/01 06:23:23;;;;;;;0.55;0.55;;;3.50;99.90;;;;;;5111580;27;20419;-66
2023/02/01 06:25:51;;;;;;;0.30;0.25;;;3.40;99.90;;;;;;5129619;27;20221;-68
2023/02/01 06:28:17;;;;;;;0.50;0.50;;;3.40;99.90;;;;;;5129376;27;20245;-67
2023/02/01 06:30:45;;;;;;;0.60;0.60;;;3.30;99.90;;;;;;5129180;27;20294;-66
2023/02/01 06:33:14;;;;;;;0.40;0.40;;;3.10;99.90;;;;;;5129732;27;20201;-65
2023/02/01 06:35:42;;;;;;;0.65;0.65;;;3.30;99.90;;;;;;5130141;27;20709;-67
2023/02/01 06:38:10;;;;;;;0.40;0.40;;;3.30;99.90;;;;;;5117913;27;20548;-66
2023/02/01 06:40:37;;;;;;;0.55;0.55;;;3.40;99.90;;;;;;5130942;27;20221;-66
2023/02/01 06:43:04;;;;;;;0.75;0.70;;;3.30;99.90;;;;;;5110671;27;20217;-66
2023/02/01 06:45:31;;;;;;;0.40;0.40;;;3.30;99.90;;;;;;5129115;27;20217;-66
2023/02/01 06:48:00;;;;;;;0.82;0.80;;;3.30;99.90;;;;;;5129874;27;20193;-68
2023/02/01 06:50:27;;;;;;;0.43;0.40;;;3.40;99.90;;;;;;5122183;27;20287;-66
2023/02/01 06:52:54;;;;;;;1.17;1.17;;;3.40;99.90;;;;;;5119240;27;20202;-66
2023/02/01 06:55:22;;;;;;;0.30;0.30;;;3.50;99.90;;;;;;5121081;27;20736;-66
2023/02/01 06:57:48;;;;;;;0.47;0.43;;;3.40;99.90;;;;;;5126219;27;20216;-66
2023/02/01 07:00:16;;;;;;;1.27;0.45;;;3.50;99.90;;;;;;5108696;27;20190;-66
2023/02/01 07:02:43;;;;;;;0.40;0.40;;;3.50;99.90;;;;;;5113521;27;20196;-67
2023/02/01 07:05:10;;;;;;;0.40;0.40;;;3.50;99.90;;;;;;5114515;27;20194;-67
2023/02/01 07:07:37;;;;;;;4.90;1.58;;;3.90;99.90;;;;;;5118443;27;20284;-67
2023/02/01 07:10:04;;;;;;;0.60;0.52;;;3.60;99.90;;;;;;5128663;27;20212;-67
2023/02/01 07:12:32;;;;;;;0.50;0.50;;;3.60;99.90;;;;;;5129756;27;20200;-66
2023/02/01 07:14:59;;;;;;;0.40;0.40;;;3.60;99.90;;;;;;5129343;27;20918;-67
2023/02/01 07:17:25;;;;;;;0.50;0.40;;;3.60;99.90;;;;;;5116293;27;20261;-66
2023/02/01 07:19:52;;;;;;;1.30;1.20;;;3.60;99.90;;;;;;5113653;27;20203;-66
2023/02/01 07:22:19;;;;;;;0.50;0.50;;;3.60;99.90;;;;;;5128819;27;20221;-67
2023/02/01 07:24:46;;;;;;;0.60;0.60;;;3.60;99.90;;;;;;5129372;27;20281;-66
2023/02/01 07:27:13;;;;;;;1.55;1.45;;;3.60;99.90;;;;;;5125285;27;20209;-68
2023/02/01 07:29:41;;;;;;;1.17;0.80;;;3.60;99.90;;;;;;5126024;27;20387;-65
2023/02/01 07:32:07;;;;;;;1.08;0.98;;;3.70;99.90;;;;;;5108487;28;20226;-66
2023/02/01 07:34:34;;;;;;;1.92;1.20;;;3.70;99.90;;;;;;5109456;27;20198;-66
2023/02/01 07:37:01;;;;;;;1.65;0.90;;;3.70;99.90;;;;;;5128786;27;20709;-66
2023/02/01 07:39:31;;;;;;;0.98;0.70;;;3.70;99.90;;;;;;5121344;27;20197;-66
2023/02/01 07:41:58;;;;;;;1.02;0.70;;;3.70;99.90;;;;;;5127206;27;20274;-67
2023/02/01 07:44:25;;;;;;;0.30;0.30;;;3.70;99.90;;;;;;5124787;27;20576;-66
2023/02/01 07:46:53;;;;;;;0.32;0.32;;;3.70;99.90;;;;;;5128218;27;20229;-66
2023/02/01 07:49:20;;;;;;;1.08;0.63;;;3.80;99.90;;;;;;5127071;27;20197;-66
2023/02/01 07:51:46;;;;;;;0.43;0.43;;;3.70;99.90;;;;;;5127723;27;20213;-66
2023/02/01 07:54:13;;;;;;;0.40;0.30;;;3.80;99.90;;;;;;5115676;27;20197;-66
2023/02/01 07:56:40;;;;;;;1.63;1.05;;;4.40;99.90;;;;;;5120600;27;20235;-66
2023/02/01 07:59:07;;;;;;;0.45;0.45;;;3.90;99.90;;;;;;5112066;27;20204;-67
2023/02/01 08:01:33;;;;;;;0.40;0.40;;;3.90;99.90;;;;;;5120822;27;20282;-67
2023/02/01 08:04:03;;;;;;;0.80;0.80;;;3.90;99.90;;;;;;5129038;27;20616;-66
2023/02/01 08:06:33;;;;;;;0.85;0.85;;;3.90;99.90;;;;;;5126860;27;20223;-66
2023/02/01 08:09:00;;;;;;;0.68;0.68;;;4.00;99.90;;;;;;5128052;27;20197;-66
2023/02/01 08:11:27;;;;;;;0.30;0.28;;;3.90;99.90;;;;;;5118553;27;20213;-66
2023/02/01 08:13:55;;;;;;;1.25;0.85;;;3.90;99.90;;;;;;5129262;27;20205;-65
2023/02/01 08:16:23;;;;;;;0.30;0.20;;;3.90;99.90;;;;;;5128729;27;20243;-67
2023/02/01 08:18:50;;;;;;;0.40;0.40;;;3.90;99.90;;;;;;5117137;27;20205;-66
2023/02/01 08:21:21;;;;;;;2.22;1.17;;;4.00;99.90;;;;;;5125899;27;20214;-67
2023/02/01 08:23:49;;;;;;;0.50;0.40;;;4.10;99.90;;;;;;5127589;27;20245;-66
2023/02/01 08:26:18;;;;;;;0.50;0.50;;;4.00;99.90;;;;;;5126249;27;20274;-66
2023/02/01 08:28:47;;;;;;;0.50;0.50;;;4.00;99.90;;;;;;5127895;27;20197;-66
2023/02/01 08:31:15;;;;;;;0.40;0.40;;;4.00;99.90;;;;;;5127923;27;20225;-66
2023/02/01 08:33:43;;;;;;;0.75;0.75;;;4.10;99.90;;;;;;5108599;27;20672;-66
2023/02/01 08:36:11;;;;;;;0.30;0.20;;;4.10;99.90;;;;;;5111575;27;20650;-68
2023/02/01 08:38:41;;;;;;;0.30;0.20;;;4.00;99.90;;;;;;5123371;27;20693;-66
2023/02/01 08:41:10;;;;;;;0.60;0.60;;;3.50;99.90;;;;;;5120470;27;20296;-66
2023/02/01 08:43:37;;;;;;;0.68;0.65;;;4.10;99.90;;;;;;5127741;27;20213;-67
2023/02/01 08:46:04;;;;;;;0.77;0.50;;;4.20;99.90;;;;;;5107854;28;20226;-68
2023/02/01 08:48:31;;;;;;;0.40;0.40;;;4.30;99.90;;;;;;5117044;27;20656;-66
2023/02/01 08:50:58;;;;;;;1.50;1.38;;;4.30;99.90;;;;;;5127305;27;20229;-67
2023/02/01 08:53:25;;;;;;;0.85;0.82;;;4.40;99.90;;;;;;5127117;27;20197;-66
2023/02/01 08:55:53;;;;;;;0.70;0.70;;;4.40;99.90;;;;;;5128289;27;20577;-67
2023/02/01 08:58:21;;;;;;;1.50;0.90;;;4.40;99.90;;;;;;5119994;27;20217;-66
2023/02/01 09:00:49;;;;;;;1.95;1.85;;;4.50;99.90;;;;;;5127372;27;20286;-66
2023/02/01 09:03:16;;;;;;;4.97;1.17;;;4.50;99.90;;;;;;5126184;27;20559;-66
2023/02/01 09:05:44;;;;;;;0.80;0.80;;;4.50;99.90;;;;;;5128266;27;20235;-68
2023/02/01 09:08:13;;;;;;;2.78;1.45;;;4.80;99.90;;;;;;5127242;27;20216;-66
2023/02/01 09:10:41;;;;;;;0.60;0.50;;;4.60;99.90;;;;;;5111699;27;20614;-66
2023/02/01 09:13:09;;;;;;;0.73;0.57;;;4.60;99.90;;;;;;5107532;28;20232;-66
2023/02/01 09:15:36;;;;;;;0.95;0.60;;;;;;;;;;5124631;28;20225;-66
2023/02/01 09:18:03;;;;;;;1.52;1.40;;;4.60;99.90;;;;;;5126368;28;20232;-67
2023/02/01 09:20:30;;;;;;;0.70;0.55;;;4.60;99.90;;;;;;5128266;28;20240;-66
2023/02/01 09:22:57;;;;;;;0.85;0.50;;;4.60;99.90;;;;;;5112092;28;20197;-66
2023/02/01 09:25:24;;;;;;;0.70;0.50;;;4.60;99.90;;;;;;5110304;28;20221;-67
2023/02/01 09:27:50;;;;;;;0.57;0.55;;;4.60;99.90;;;;;;5120910;28;20201;-66
2023/02/01 09:30:19;;;;;;;0.40;0.35;;;4.60;99.90;;;;;;5126310;28;20189;-66
2023/02/01 09:32:46;;;;;;;0.30;0.30;;;4.80;99.90;;;;;;5126985;28;20200;-68
2023/02/01 09:35:12;;;;;;;0.30;0.30;;;4.70;99.90;;;;;;5127707;28;20295;-66
2023/02/01 09:37:39;;;;;;;1.40;1.30;;;4.80;99.90;;;;;;5121367;27;20641;-67
2023/02/01 09:40:07;;;;;;;0.30;0.30;;;4.70;99.90;;;;;;5123114;27;20549;-66
2023/02/01 09:42:49;;;;;;;0.40;0.40;;;4.70;99.90;;;;;;5123009;27;20202;-66
2023/02/01 09:45:24;;;;;;;0.55;0.55;;;5.10;99.90;;;;;;5121073;27;20662;-67
2023/02/01 09:48:00;;;;;;;1.95;1.40;;;4.90;99.90;;;;;;5128361;27;20594;-66
2023/02/01 09:50:35;;;;;;;0.30;0.30;;;4.90;99.90;;;;;;5109302;28;20221;-68
2023/02/01 09:53:05;;;;;;;0.88;0.70;;;5.00;99.90;;;;;;5121383;27;20196;-67
2023/02/01 09:55:39;;;;;;;1.30;1.20;;;5.00;99.90;;;;;;5114053;27;20251;-66
2023/02/01 09:58:09;;;;;;;0.85;0.85;;;5.00;99.90;;;;;;5129994;27;20217;-66
2023/02/01 10:00:39;;;;;;;0.95;0.95;;;5.20;99.90;;;;;;5128714;27;20637;-66
2023/02/01 10:03:12;;;;;;;0.45;0.45;;;5.10;99.90;;;;;;5125444;27;20284;-66
2023/02/01 10:05:57;;;;;;;20.30;1.63;;;4.90;99.90;;;;;;5094205;28;20229;-67
2023/02/01 10:08:32;;;;;;;3.72;1.60;;;5.20;99.90;;;;;;5116272;27;20288;-67
2023/02/01 10:11:10;;;;;;;0.47;0.40;;;5.30;99.90;;;;;;5131371;27;20311;-67
2023/02/01 10:13:49;;;;;;;1.02;0.77;;;5.20;99.90;;;;;;5127731;27;20280;-67
2023/02/01 10:16:31;;;;;;;0.30;0.20;;;4.90;99.90;;;;;;5129595;27;20216;-67
2023/02/01 10:19:23;;;;;;;0.60;0.52;;;5.20;99.30;;;;;;5121987;27;20616;-67
2023/02/01 10:21:58;;;;;;;0.30;0.30;;;5.20;99.30;;;;;;5110624;27;20711;-66
2023/02/01 10:24:41;;;;;;;0.45;0.43;;;5.30;98.80;;;;;;5116182;27;20287;-67
2023/02/01 10:27:20;;;;;;;0.38;0.28;;;5.20;98.60;;;;;;5131383;27;20224;-67
2023/02/01 10:29:53;;;;;;;0.63;0.35;;;5.20;98.50;;;;;;5129662;27;20237;-66
2023/02/01 10:32:23;;;;;;;3.90;1.08;;;5.20;99.90;;;;;;5129923;27;20221;-67
2023/02/01 10:34:57;;;;;;;0.93;0.60;;;5.20;98.20;;;;;;5130747;27;20201;-67
2023/02/01 10:37:29;;;;;;;0.50;0.40;;;5.30;99.90;;;;;;5124552;27;20241;-67
2023/02/01 10:39:59;;;;;;;1.20;1.10;;;5.20;98.00;;;;;;5118591;27;20545;-67
2023/02/01 10:42:28;;;;;;;0.40;0.25;;;5.30;97.60;;;;;;5124672;27;20321;-66
2023/02/01 10:44:58;;;;;;;0.80;0.80;;;5.30;99.90;;;;;;5130587;27;20210;-67
2023/02/01 10:47:26;;;;;;;0.30;0.25;;;5.30;97.60;;;;;;5123663;27;20226;-67
2023/02/01 10:49:59;;;;;;;0.60;0.52;;;5.40;99.90;;;;;;5109441;28;20202;-67
2023/02/01 10:52:37;;;;;;;2.05;1.95;;;5.30;97.40;;;;;;5118704;27;20223;-67
2023/02/01 10:55:30;;;;;;;1.20;0.43;;;5.40;97.70;;;;;;5130419;27;20292;-67
2023/02/01 10:57:58;;;;;;;0.30;0.30;;;5.20;99.90;;;;;;5128969;27;20249;-67
2023/02/01 11:00:26;;;;;;;0.30;0.20;;;5.30;97.40;;;;;;5125693;27;20312;-68
2023/02/01 11:02:56;;;;;;;2.30;2.10;;;5.30;99.90;;;;;;5118427;27;20738;-67
2023/02/01 11:05:23;;;;;;;3.90;0.80;;;5.30;97.30;;;;;;5116733;27;20206;-68
2023/02/01 11:07:54;;;;;;;0.40;0.40;;;5.40;97.40;;;;;;5110065;28;20257;-67
2023/02/01 11:10:38;;;;;;;0.60;0.60;;;5.50;96.90;;;;;;5108323;28;20570;-67
2023/02/01 11:13:06;;;;;;;2.67;0.35;;;5.50;96.50;;;;;;5128007;27;20205;-68
2023/02/01 11:15:33;;;;;;;0.30;0.30;;;5.70;99.90;;;;;;5115762;27;20226;-68
2023/02/01 11:18:18;;;;;;;1.10;1.00;;;5.50;96.60;;;;;;5109191;28;20229;-68
2023/02/01 11:20:49;;;;;;;0.98;0.77;;;5.60;96.50;;;;;;5109314;28;20230;-69
2023/02/01 11:23:17;;;;;;;0.52;0.52;;;5.60;95.90;;;;;;5109736;28;20218;-67
2023/02/01 11:25:51;;;;;;;0.65;0.45;;;5.60;95.90;;;;;;5119511;27;20221;-67
2023/02/01 11:28:19;;;;;;;1.40;1.05;;;5.60;99.90;;;;;;5129064;27;20213;-67
2023/02/01 11:30:48;;;;;;;2.55;2.28;;;5.60;96.00;;;;;;5130381;27;20699;-66
2023/02/01 11:33:19;;;;;;;2.47;2.03;;;5.60;95.30;;;;;;5129651;27;20205;-68
2023/02/01 11:35:48;;;;;;;2.45;1.05;;;5.60;95.70;;;;;;5130120;27;20393;-66
2023/02/01 11:38:27;;;;;;;0.65;0.65;;;5.60;95.80;;;;;;5114969;27;20240;-67
2023/02/01 11:40:54;;;;;;;3.30;0.77;;;5.50;99.90;;;;;;5121522;27;20217;-67
2023/02/01 11:43:26;;;;;;;0.55;0.55;;;5.60;95.30;;;;;;5127815;27;20689;-66
2023/02/01 11:45:57;;;;;;;0.55;0.55;;;5.70;99.90;;;;;;5128935;27;20729;-67
2023/02/01 11:48:27;;;;;;;0.93;0.55;;;5.70;95.70;;;;;;5128385;27;20809;-66
2023/02/01 11:51:17;;;;;;;0.40;0.40;;;5.70;95.40;;;;;;5121996;27;20308;-66
2023/02/01 11:54:00;;;;;;;0.70;0.70;;;5.60;95.10;;;;;;5126642;27;20209;-67
2023/02/01 11:56:34;;;;;;;1.40;1.40;;;5.70;95.50;;;;;;5126982;27;20221;-67
2023/02/01 11:59:13;;;;;;;0.52;0.52;;;5.80;95.30;;;;;;5125637;27;20231;-66
2023/02/01 12:01:52;;;;;;;0.93;0.30;;;5.70;99.90;;;;;;5123280;27;20244;-66
2023/02/01 12:05:00;;;;;;;0.80;0.80;;;6.00;99.90;;;;;;5127435;27;20627;-68
2023/02/01 12:07:43;;;;;;;0.40;0.30;;;5.80;94.50;;;;;;5126889;27;20605;-68
2023/02/01 12:10:25;;;;;;;0.80;0.40;;;5.80;94.20;;;;;;5127934;27;20200;-68
2023/02/01 12:13:07;;;;;;;1.27;1.15;;;5.70;94.60;;;;;;5124977;27;20200;-68
2023/02/01 12:15:48;;;;;;;5.28;0.93;;;5.60;94.30;;;;;;5122792;27;20229;-68
2023/02/01 12:18:36;;;;;;;0.50;0.50;;;5.70;94.70;;;;;;5127915;27;20221;-68
2023/02/01 12:21:23;;;;;;;2.40;1.65;;;5.70;95.00;;;;;;5128822;27;20221;-69
2023/02/01 12:24:07;;;;;;;5.25;1.85;;;5.80;95.20;;;;;;5114933;27;20207;-68
2023/02/01 12:26:49;;;;;;;1.00;1.00;;;5.80;94.60;;;;;;5127964;27;20215;-69
2023/02/01 12:29:46;;;;;;;1.48;1.38;;;5.70;94.00;;;;;;5127226;27;20221;-69
2023/02/01 12:32:26;;;;;;;0.47;0.47;;;5.60;94.30;;;;;;5125923;27;20296;-69
2023/02/01 12:35:15;;;;;;;0.57;0.57;;;5.50;94.50;;;;;;5127662;27;20281;-69
2023/02/01 12:37:58;;;;;;;1.35;1.25;;;5.50;94.50;;;;;;5126506;27;20558;-69
2023/02/01 12:40:40;;;;;;;0.52;0.30;;;5.40;93.90;;;;;;5115120;27;20217;-69
2023/02/01 12:43:15;;;;;;;2.78;0.47;;;5.30;99.90;;;;;;5107928;28;20560;-69
2023/02/01 12:45:44;;;;;;;0.60;0.55;;;5.70;99.90;;;;;;5115208;27;20228;-69
2023/02/01 12:48:26;;;;;;;0.65;0.65;;;5.40;94.40;;;;;;5128274;27;20719;-69
2023/02/01 12:50:59;;;;;;;0.50;0.50;;;5.40;94.30;;;;;;5127708;27;20221;-68
2023/02/01 12:53:34;;;;;;;0.50;0.43;;;5.40;94.20;;;;;;5120487;27;20285;-69
2023/02/01 12:56:06;;;;;;;0.60;0.30;;;5.40;94.40;;;;;;5124272;27;20220;-69
2023/02/01 12:58:41;;;;;;;0.30;0.30;;;5.50;94.60;;;;;;5127128;27;20221;-69
2023/02/01 13:01:13;;;;;;;0.30;0.25;;;5.40;94.90;;;;;;5119984;27;20228;-67
2023/02/01 13:03:45;;;;;;;0.40;0.40;;;5.40;94.10;;;;;;5125347;27;20511;-69
2023/02/01 13:06:17;;;;;;;1.15;0.93;;;5.40;94.30;;;;;;5115224;27;20556;-69
2023/02/01 13:08:51;;;;;;;3.03;0.60;;;5.50;94.70;;;;;;5126956;27;20718;-68
2023/02/01 13:11:25;;;;;;;2.95;2.53;;;5.40;99.90;;;;;;5110980;27;20223;-69
2023/02/01 13:14:01;;;;;;;3.35;2.10;;;5.20;94.40;;;;;;5128627;27;20204;-69
2023/02/01 13:16:32;;;;;;;2.88;2.67;;;5.30;95.10;;;;;;5127673;27;20762;-69
2023/02/01 13:19:07;;;;;;;0.60;0.60;;;5.30;95.00;;;;;;5115302;28;20222;-69
2023/02/01 13:21:40;;;;;;;1.60;1.50;;;5.30;94.70;;;;;;5109884;28;20213;-69
2023/02/01 13:24:22;;;;;;;5.88;0.95;;;5.60;99.90;;;;;;5127952;28;20193;-69
2023/02/01 13:26:49;;;;;;;2.75;1.20;;;5.30;95.10;;;;;;5127544;28;20717;-69
2023/02/01 13:29:20;;;;;;;0.88;0.60;;;5.30;95.40;;;;;;5113009;28;20204;-69
2023/02/01 13:32:05;;;;;;;7.70;1.25;;;5.20;94.70;;;;;;5127593;28;20225;-69
2023/02/01 13:35:04;;;;;;;0.63;0.63;;;5.30;99.90;;;;;;5125736;28;20196;-69
2023/02/01 13:37:48;;;;;;;0.50;0.40;;;5.20;94.70;;;;;;5114651;28;20219;-69
2023/02/01 13:40:36;;;;;;;3.10;0.98;;;5.30;94.90;;;;;;5118223;28;20678;-69
2023/02/01 13:43:09;;;;;;;5.43;1.90;;;5.30;94.90;;;;;;5107839;28;20221;-70